Time;durP1;ratioP1;P1;durP2;ratioP2;P2;SDS_P1;SDS_P2;PMS_P1;PMS_P2;Temp;Humidity;BMP_temperature;BMP_pressure;BME280_temperature;BME280_humidity;BME280_pressure;Samples;Min_cycle;Max_cycle;Signal;HPM_P1;HPM_P2
2022/10/29 00:01:25;;;;;;;10.40;4.53;;;18.40;99.90;;;;;;4138097;28;20045;-65
2022/10/29 00:03:26;;;;;;;7.20;3.95;;;18.30;99.90;;;;;;4135003;28;20034;-65
2022/10/29 00:05:26;;;;;;;10.73;3.90;;;18.30;99.90;;;;;;4133512;28;20069;-66
2022/10/29 00:07:27;;;;;;;9.40;3.70;;;18.30;99.90;;;;;;4137231;28;20056;-65
2022/10/29 00:09:28;;;;;;;9.82;3.85;;;18.30;99.90;;;;;;4136798;28;20499;-65
2022/10/29 00:11:28;;;;;;;6.97;3.53;;;18.30;99.90;;;;;;4135024;28;20022;-65
2022/10/29 00:13:29;;;;;;;6.03;3.13;;;18.30;99.90;;;;;;4137969;28;20161;-65
2022/10/29 00:15:29;;;;;;;5.68;3.33;;;18.30;99.90;;;;;;4136280;28;20034;-65
2022/10/29 00:17:30;;;;;;;16.25;3.90;;;18.30;99.90;;;;;;4144177;28;20037;-65
2022/10/29 00:19:30;;;;;;;8.82;3.53;;;18.30;99.90;;;;;;4137131;28;20030;-65
2022/10/29 00:21:31;;;;;;;6.97;3.25;;;18.30;99.90;;;;;;4136922;28;20054;-65
2022/10/29 00:23:33;;;;;;;9.43;3.97;;;18.30;99.90;;;;;;4139359;28;20041;-65
2022/10/29 00:25:34;;;;;;;9.77;3.37;;;18.30;99.90;;;;;;4142844;28;20093;-66
2022/10/29 00:27:34;;;;;;;7.85;3.55;;;18.30;99.90;;;;;;4134445;28;20031;-66
2022/10/29 00:29:35;;;;;;;6.25;3.38;;;18.30;99.90;;;;;;4149873;28;20476;-65
2022/10/29 00:31:35;;;;;;;7.63;3.55;;;18.20;99.90;;;;;;4138198;28;20381;-65
2022/10/29 00:33:36;;;;;;;8.48;3.08;;;18.20;99.90;;;;;;4130721;28;20034;-68
2022/10/29 00:35:36;;;;;;;7.80;3.55;;;18.20;99.90;;;;;;4131763;28;20031;-66
2022/10/29 00:37:39;;;;;;;8.18;3.63;;;18.20;99.90;;;;;;4150930;28;20111;-66
2022/10/29 00:39:40;;;;;;;;;;;18.20;99.90;;;;;;4137066;28;20034;-65
2022/10/29 00:41:41;;;;;;;6.57;3.50;;;18.20;99.90;;;;;;4136738;28;19963;-65
2022/10/29 00:43:51;;;;;;;9.77;3.53;;;18.20;99.90;;;;;;4117894;28;20085;-65
2022/10/29 00:46:00;;;;;;;10.57;4.22;;;18.10;99.90;;;;;;4133318;28;20069;-65
2022/10/29 00:48:00;;;;;;;7.30;3.60;;;18.10;99.90;;;;;;4143578;28;20097;-65
2022/10/29 00:50:07;;;;;;;6.80;3.67;;;18.10;99.90;;;;;;4142428;28;20038;-65
2022/10/29 00:52:09;;;;;;;7.88;3.65;;;18.10;99.90;;;;;;4141063;28;20057;-65
2022/10/29 00:54:11;;;;;;;9.13;4.32;;;18.10;99.90;;;;;;4156088;28;20049;-65
2022/10/29 00:56:13;;;;;;;13.02;3.88;;;18.10;99.90;;;;;;4131149;28;20958;-65
2022/10/29 00:58:14;;;;;;;7.60;3.67;;;18.10;99.90;;;;;;4136230;28;20517;-65
2022/10/29 01:00:19;;;;;;;10.20;4.20;;;18.10;99.90;;;;;;4149895;28;20421;-74
2022/10/29 01:02:22;;;;;;;7.78;4.38;;;18.10;99.90;;;;;;4136499;28;20046;-65
2022/10/29 01:04:24;;;;;;;11.27;4.70;;;18.10;99.90;;;;;;4132680;28;20035;-65
2022/10/29 01:06:27;;;;;;;8.52;3.97;;;18.10;99.90;;;;;;4132552;28;20113;-65
2022/10/29 01:08:27;;;;;;;8.02;4.25;;;18.10;99.90;;;;;;4153183;28;20057;-67
2022/10/29 01:10:49;;;;;;;10.60;4.53;;;18.10;99.90;;;;;;4153566;28;20656;-65
2022/10/29 01:13:32;;;;;;;9.25;4.57;;;18.10;99.90;;;;;;4138961;28;20104;-65
2022/10/29 01:15:45;;;;;;;9.48;4.88;;;18.10;99.90;;;;;;4150537;28;20151;-65
2022/10/29 01:18:04;;;;;;;;;;;18.00;99.90;;;;;;4139363;28;20057;-65
2022/10/29 01:20:23;;;;;;;11.10;4.32;;;17.90;99.90;;;;;;4137875;28;19932;-66
2022/10/29 01:22:42;;;;;;;7.90;4.10;;;17.90;99.90;;;;;;4134360;28;20059;-64
2022/10/29 01:25:05;;;;;;;9.45;4.47;;;17.90;99.90;;;;;;4132194;28;20507;-65
2022/10/29 01:27:28;;;;;;;7.88;3.90;;;17.90;99.90;;;;;;4152208;28;20484;-65
2022/10/29 01:29:40;;;;;;;10.95;4.10;;;17.90;99.90;;;;;;4120332;28;20122;-64
2022/10/29 01:31:51;;;;;;;6.97;3.25;;;17.90;99.90;;;;;;4123051;28;20074;-65
2022/10/29 01:34:00;;;;;;;5.18;3.30;;;17.80;99.90;;;;;;4138588;28;20037;-65
2022/10/29 01:36:33;;;;;;;8.25;4.38;;;17.80;99.90;;;;;;4117308;28;20043;-65
2022/10/29 01:39:01;;;;;;;7.63;3.85;;;17.80;99.90;;;;;;4113356;28;20057;-67
2022/10/29 01:41:21;;;;;;;7.35;3.72;;;17.70;99.90;;;;;;4138790;28;20096;-66
2022/10/29 01:43:30;;;;;;;7.05;3.55;;;17.70;99.90;;;;;;4108304;28;20420;-67
2022/10/29 01:45:41;;;;;;;6.95;3.78;;;17.70;99.90;;;;;;4124701;28;20509;-64
2022/10/29 01:47:49;;;;;;;6.30;3.85;;;17.60;99.90;;;;;;4121887;28;20034;-65
2022/10/29 01:49:58;;;;;;;7.93;4.05;;;17.70;99.90;;;;;;4120837;28;20037;-65
2022/10/29 01:52:02;;;;;;;10.32;4.50;;;17.60;99.90;;;;;;4120680;28;20039;-64
2022/10/29 01:54:08;;;;;;;13.48;4.50;;;17.60;99.90;;;;;;4117452;28;20034;-65
2022/10/29 01:56:08;;;;;;;8.60;4.18;;;17.70;99.90;;;;;;4125305;28;20113;-65
2022/10/29 01:58:11;;;;;;;6.03;3.22;;;17.60;99.90;;;;;;4136860;28;20033;-64
2022/10/29 02:00:13;;;;;;;10.52;3.78;;;17.60;99.90;;;;;;4124335;28;20038;-66
2022/10/29 02:02:38;;;;;;;6.80;3.72;;;17.60;99.90;;;;;;4122230;28;20068;-64
2022/10/29 02:04:49;;;;;;;7.20;3.65;;;17.60;99.90;;;;;;4120615;28;20042;-65
2022/10/29 02:07:10;;;;;;;7.25;3.75;;;17.60;99.90;;;;;;4140553;28;20057;-65
2022/10/29 02:09:36;;;;;;;10.05;3.97;;;17.60;99.90;;;;;;4117691;28;20034;-64
2022/10/29 02:11:50;;;;;;;6.55;3.75;;;17.60;99.90;;;;;;4132676;28;20034;-70
2022/10/29 02:13:57;;;;;;;6.57;2.92;;;17.60;99.90;;;;;;4121729;28;20031;-65
2022/10/29 02:16:01;;;;;;;7.05;3.45;;;17.60;99.90;;;;;;4120225;28;20598;-66
2022/10/29 02:18:04;;;;;;;5.65;3.60;;;17.60;99.90;;;;;;4108515;28;20485;-65
2022/10/29 02:20:09;;;;;;;10.50;3.95;;;17.50;99.90;;;;;;4116898;28;20023;-67
2022/10/29 02:22:09;;;;;;;13.63;3.60;;;17.40;99.90;;;;;;4120429;28;20129;-64
2022/10/29 02:24:10;;;;;;;9.07;3.83;;;17.40;99.90;;;;;;4118117;28;21615;-64
2022/10/29 02:26:12;;;;;;;10.02;3.85;;;17.40;99.90;;;;;;4120373;28;20050;-66
2022/10/29 02:28:12;;;;;;;6.13;3.95;;;17.40;99.90;;;;;;4118155;28;20039;-65
2022/10/29 02:30:13;;;;;;;9.27;4.05;;;17.40;99.90;;;;;;4120802;28;20118;-75
2022/10/29 02:32:13;;;;;;;9.00;3.85;;;17.40;99.90;;;;;;4128126;28;20073;-77
2022/10/29 02:34:14;;;;;;;8.18;4.28;;;17.40;99.90;;;;;;4113068;28;20366;-78
2022/10/29 02:36:15;;;;;;;11.73;4.50;;;17.40;99.90;;;;;;4117437;28;20122;-77
2022/10/29 02:38:15;;;;;;;10.02;4.10;;;17.40;99.90;;;;;;4131673;28;20512;-77
2022/10/29 02:40:16;;;;;;;12.75;4.07;;;17.40;99.90;;;;;;4122078;28;20039;-78
2022/10/29 02:42:17;;;;;;;9.82;4.68;;;17.40;99.90;;;;;;4125584;28;20116;-77
2022/10/29 02:44:17;;;;;;;7.38;4.03;;;17.40;99.90;;;;;;4120757;28;20038;-75
2022/10/29 02:46:20;;;;;;;10.77;4.32;;;17.40;99.90;;;;;;4123126;28;20049;-77
2022/10/29 02:48:21;;;;;;;13.90;4.57;;;17.40;99.90;;;;;;4118417;28;20070;-77
2022/10/29 02:50:21;;;;;;;9.00;4.45;;;17.40;99.90;;;;;;4117888;28;20041;-74
2022/10/29 02:52:22;;;;;;;11.15;4.03;;;17.30;99.90;;;;;;4119336;28;20047;-77
2022/10/29 02:54:23;;;;;;;9.98;4.15;;;17.30;99.90;;;;;;4133237;28;20066;-77
2022/10/29 02:56:23;;;;;;;6.50;4.07;;;17.30;99.90;;;;;;4119383;28;20041;-77
2022/10/29 02:58:24;;;;;;;6.20;3.88;;;17.30;99.90;;;;;;4117655;28;20042;-77
2022/10/29 03:00:24;;;;;;;7.97;4.43;;;17.30;99.90;;;;;;4120217;28;20137;-77
2022/10/29 03:02:25;;;;;;;10.75;4.30;;;17.30;99.90;;;;;;4119572;28;20030;-78
2022/10/29 03:04:26;;;;;;;12.02;4.75;;;17.30;99.90;;;;;;4137509;28;20046;-77
2022/10/29 03:06:26;;;;;;;10.18;4.75;;;17.30;99.90;;;;;;4108811;28;20027;-77
2022/10/29 03:08:27;;;;;;;8.15;4.40;;;17.30;99.90;;;;;;4122041;28;20167;-75
2022/10/29 03:10:27;;;;;;;9.32;4.43;;;17.30;99.90;;;;;;4123008;28;20057;-78
2022/10/29 03:12:29;;;;;;;7.95;3.88;;;17.30;99.90;;;;;;4120102;28;20488;-76
2022/10/29 03:14:29;;;;;;;8.00;3.88;;;17.20;99.90;;;;;;4118995;28;20388;-78
2022/10/29 03:16:30;;;;;;;8.98;4.47;;;17.30;99.90;;;;;;4138432;28;20042;-77
2022/10/29 03:18:30;;;;;;;7.72;4.60;;;17.30;99.90;;;;;;4125664;28;20033;-77
2022/10/29 03:20:31;;;;;;;9.95;4.75;;;17.30;99.90;;;;;;4124375;28;20165;-75
2022/10/29 03:22:31;;;;;;;11.73;5.07;;;17.30;99.90;;;;;;4135953;28;20030;-77
2022/10/29 03:24:32;;;;;;;10.20;4.60;;;17.20;99.90;;;;;;4119115;28;20498;-77
2022/10/29 03:26:33;;;;;;;8.70;4.28;;;17.20;99.90;;;;;;4118303;28;20036;-78
2022/10/29 03:28:33;;;;;;;12.23;5.00;;;17.20;99.90;;;;;;4119562;28;20082;-77
2022/10/29 03:30:34;;;;;;;13.27;4.93;;;17.30;99.90;;;;;;4138600;28;20022;-78
2022/10/29 03:32:39;;;;;;;12.18;5.55;;;17.20;99.90;;;;;;4118251;28;20210;-77
2022/10/29 03:34:39;;;;;;;9.75;5.18;;;17.20;99.90;;;;;;4123472;28;20039;-77
2022/10/29 03:36:40;;;;;;;10.60;5.55;;;17.20;99.90;;;;;;4129081;28;20058;-74
2022/10/29 03:38:40;;;;;;;13.43;5.72;;;17.20;99.90;;;;;;4122579;28;20042;-77
2022/10/29 03:40:41;;;;;;;12.00;5.90;;;17.20;99.90;;;;;;4122728;28;20045;-77
2022/10/29 03:42:42;;;;;;;9.50;5.28;;;17.20;99.90;;;;;;4120551;28;20042;-76
2022/10/29 03:44:42;;;;;;;11.30;5.97;;;17.20;99.90;;;;;;4137856;28;20487;-77
2022/10/29 03:46:43;;;;;;;9.88;5.57;;;17.20;99.90;;;;;;4116407;28;20563;-78
2022/10/29 03:48:44;;;;;;;10.50;5.85;;;17.20;99.90;;;;;;4122605;28;20030;-77
2022/10/29 03:50:52;;;;;;;10.88;5.85;;;17.20;99.90;;;;;;4119196;28;20030;-77
2022/10/29 03:52:52;;;;;;;13.48;5.13;;;17.20;99.90;;;;;;4121509;28;20623;-75
2022/10/29 03:54:53;;;;;;;8.80;5.32;;;17.20;99.90;;;;;;4121930;28;20078;-77
2022/10/29 03:56:53;;;;;;;13.07;5.45;;;17.20;99.90;;;;;;4123003;28;20046;-77
2022/10/29 03:58:54;;;;;;;11.65;5.28;;;17.20;99.90;;;;;;4139822;28;20100;-77
2022/10/29 04:01:00;;;;;;;12.05;5.45;;;17.20;99.90;;;;;;4122752;28;20488;-76
2022/10/29 04:03:01;;;;;;;11.35;5.45;;;17.10;99.90;;;;;;4122692;28;20408;-77
2022/10/29 04:05:01;;;;;;;12.85;5.25;;;17.00;99.90;;;;;;4122566;28;20042;-77
2022/10/29 04:07:02;;;;;;;11.73;4.95;;;17.00;99.90;;;;;;4119340;28;20031;-77
2022/10/29 04:09:03;;;;;;;9.80;5.45;;;17.00;99.90;;;;;;4119676;28;20100;-78
2022/10/29 04:11:03;;;;;;;8.52;4.38;;;17.00;99.90;;;;;;4120471;28;20029;-78
2022/10/29 04:13:04;;;;;;;10.95;4.90;;;17.00;99.90;;;;;;4118935;28;20034;-77
2022/10/29 04:15:05;;;;;;;7.00;4.35;;;17.10;99.90;;;;;;4121173;28;20035;-74
2022/10/29 04:17:06;;;;;;;8.82;4.38;;;17.00;99.90;;;;;;4127114;28;20081;-78
2022/10/29 04:19:06;;;;;;;7.78;4.10;;;17.10;99.90;;;;;;4122528;28;20108;-77
2022/10/29 04:21:08;;;;;;;10.65;4.80;;;17.10;99.90;;;;;;4123635;28;20026;-77
2022/10/29 04:23:08;;;;;;;8.70;4.00;;;17.00;99.90;;;;;;4132985;28;20040;-78
2022/10/29 04:25:09;;;;;;;9.50;4.55;;;17.00;99.90;;;;;;4120988;28;20042;-74
2022/10/29 04:27:09;;;;;;;10.63;4.90;;;17.00;99.90;;;;;;4120856;28;20039;-78
2022/10/29 04:29:10;;;;;;;10.02;4.78;;;17.10;99.90;;;;;;4120979;28;20122;-78
2022/10/29 04:31:11;;;;;;;10.40;4.10;;;17.00;99.90;;;;;;4134971;28;20475;-75
2022/10/29 04:33:12;;;;;;;7.30;4.28;;;17.10;99.90;;;;;;4126292;28;20092;-78
2022/10/29 04:35:12;;;;;;;8.18;4.43;;;17.00;99.90;;;;;;4115991;28;20042;-76
2022/10/29 04:37:13;;;;;;;11.18;5.05;;;17.00;99.90;;;;;;4118941;28;20049;-77
2022/10/29 04:39:13;;;;;;;6.72;4.53;;;16.90;99.90;;;;;;4141239;28;20483;-77
2022/10/29 04:41:14;;;;;;;9.80;4.45;;;16.90;99.90;;;;;;4125291;28;20527;-77
2022/10/29 04:43:15;;;;;;;11.63;6.13;;;16.90;99.90;;;;;;4126858;28;20442;-77
2022/10/29 04:45:16;;;;;;;10.05;5.18;;;16.70;99.90;;;;;;4121959;28;20476;-78
2022/10/29 04:47:16;;;;;;;8.60;5.07;;;16.60;99.90;;;;;;4124731;28;20113;-77
2022/10/29 04:49:17;;;;;;;9.23;5.05;;;16.60;99.90;;;;;;4121710;28;20100;-78
2022/10/29 04:51:24;;;;;;;7.72;4.40;;;16.50;99.90;;;;;;4125148;28;20027;-77
2022/10/29 04:53:24;;;;;;;9.02;4.82;;;16.50;99.90;;;;;;4125249;28;20117;-77
2022/10/29 04:55:25;;;;;;;9.45;4.70;;;16.50;99.90;;;;;;4123316;28;20078;-77
2022/10/29 04:57:26;;;;;;;7.57;4.57;;;16.60;99.90;;;;;;4125653;28;20530;-77
2022/10/29 04:59:27;;;;;;;9.70;4.13;;;16.60;99.90;;;;;;4134753;28;20034;-77
2022/10/29 05:01:29;;;;;;;7.10;4.45;;;16.60;99.90;;;;;;4131883;28;20038;-78
2022/10/29 05:03:30;;;;;;;9.63;4.63;;;16.60;99.90;;;;;;4128819;28;20112;-78
2022/10/29 05:05:31;;;;;;;8.80;4.05;;;16.60;99.90;;;;;;4127424;28;25628;-77
2022/10/29 05:07:32;;;;;;;9.48;4.20;;;16.50;99.90;;;;;;4129404;28;20034;-78
2022/10/29 05:09:32;;;;;;;10.98;4.25;;;16.60;99.90;;;;;;4132265;28;20157;-78
2022/10/29 05:11:33;;;;;;;10.05;4.78;;;16.50;99.90;;;;;;4128695;28;20037;-78
2022/10/29 05:13:34;;;;;;;13.60;4.30;;;16.50;99.90;;;;;;4129795;28;20042;-77
2022/10/29 05:15:35;;;;;;;8.13;4.45;;;16.60;99.90;;;;;;4126775;28;20058;-77
2022/10/29 05:17:37;;;;;;;11.23;5.57;;;16.60;99.90;;;;;;4130304;28;20029;-78
2022/10/29 05:19:38;;;;;;;9.88;4.45;;;16.60;99.90;;;;;;4158769;28;20084;-76
2022/10/29 05:21:38;;;;;;;11.32;4.80;;;16.50;99.90;;;;;;4123376;28;20392;-76
2022/10/29 05:23:39;;;;;;;9.30;4.97;;;16.50;99.90;;;;;;4121859;28;20058;-77
2022/10/29 05:25:40;;;;;;;11.02;4.95;;;16.60;99.90;;;;;;4141039;28;20058;-77
2022/10/29 05:27:41;;;;;;;8.95;4.28;;;16.60;99.90;;;;;;4127695;28;20420;-76
2022/10/29 05:29:42;;;;;;;7.57;4.50;;;16.60;99.90;;;;;;4126289;28;20038;-77
2022/10/29 05:31:42;;;;;;;10.10;4.70;;;16.60;99.90;;;;;;4117140;28;20043;-75
2022/10/29 05:33:43;;;;;;;9.95;4.28;;;16.60;99.90;;;;;;4120015;28;20113;-72
2022/10/29 05:35:44;;;;;;;9.70;4.15;;;16.60;99.90;;;;;;4125823;28;20050;-77
2022/10/29 05:37:55;;;;;;;8.75;4.47;;;16.50;99.90;;;;;;4123807;28;20129;-78
2022/10/29 05:39:55;;;;;;;6.90;3.45;;;16.60;99.90;;;;;;4124050;28;20054;-78
2022/10/29 05:41:56;;;;;;;7.78;4.40;;;16.60;99.90;;;;;;4121761;28;20495;-78
2022/10/29 05:43:56;;;;;;;8.52;4.40;;;16.60;99.90;;;;;;4117275;28;20038;-78
2022/10/29 05:45:57;;;;;;;5.95;4.03;;;16.60;99.90;;;;;;4120103;28;20042;-75
2022/10/29 05:48:00;;;;;;;9.13;4.45;;;16.60;99.90;;;;;;4118043;28;20035;-78
2022/10/29 05:50:00;;;;;;;;;;;16.60;99.90;;;;;;4118887;28;20453;-78
2022/10/29 05:52:01;;;;;;;11.23;4.28;;;16.60;99.90;;;;;;4122725;28;19924;-78
2022/10/29 05:54:02;;;;;;;9.05;4.63;;;16.60;99.90;;;;;;4120952;28;20045;-77
2022/10/29 05:56:02;;;;;;;9.68;4.70;;;16.70;99.90;;;;;;4119114;28;20046;-77
2022/10/29 05:58:06;;;;;;;8.48;4.45;;;16.70;99.90;;;;;;4123227;28;20046;-78
2022/10/29 06:00:08;;;;;;;9.82;4.50;;;16.70;99.90;;;;;;4134062;28;20065;-77
2022/10/29 06:02:09;;;;;;;7.82;4.25;;;16.60;99.90;;;;;;4124414;28;20548;-71
2022/10/29 06:04:09;;;;;;;8.02;4.07;;;16.60;99.90;;;;;;4108450;28;20030;-77
2022/10/29 06:06:10;;;;;;;7.82;4.43;;;16.60;99.90;;;;;;4130605;28;20115;-78
2022/10/29 06:08:11;;;;;;;8.73;3.78;;;16.60;99.90;;;;;;4122061;28;20447;-78
2022/10/29 06:10:11;;;;;;;9.65;4.68;;;16.70;99.90;;;;;;4120017;28;20038;-78
2022/10/29 06:12:12;;;;;;;9.70;4.90;;;16.60;99.90;;;;;;4124040;28;20053;-78
2022/10/29 06:14:12;;;;;;;10.48;5.22;;;16.60;99.90;;;;;;4139699;28;20104;-78
2022/10/29 06:16:13;;;;;;;11.23;4.95;;;16.60;99.90;;;;;;4121669;28;20485;-78
2022/10/29 06:18:14;;;;;;;12.95;5.78;;;16.60;99.90;;;;;;4125910;28;20053;-74
2022/10/29 06:20:17;;;;;;;8.93;4.47;;;16.60;99.90;;;;;;4119650;28;20045;-72
2022/10/29 06:22:18;;;;;;;13.60;5.75;;;16.70;99.90;;;;;;4123014;28;20030;-78
2022/10/29 06:24:19;;;;;;;10.95;5.72;;;16.60;99.90;;;;;;4123773;28;20214;-76
2022/10/29 06:26:19;;;;;;;10.43;4.97;;;16.70;99.90;;;;;;4140891;28;20372;-77
2022/10/29 06:28:20;;;;;;;11.43;5.35;;;16.70;99.90;;;;;;4125926;28;20491;-74
2022/10/29 06:30:20;;;;;;;10.90;5.47;;;16.70;99.90;;;;;;4124542;28;20571;-74
2022/10/29 06:32:21;;;;;;;12.05;5.10;;;16.70;99.90;;;;;;4119660;28;20400;-74
2022/10/29 06:34:22;;;;;;;14.88;5.82;;;16.70;99.90;;;;;;4122722;28;20031;-74
2022/10/29 06:36:22;;;;;;;12.25;4.95;;;16.70;99.90;;;;;;4122679;28;20034;-75
2022/10/29 06:38:23;;;;;;;14.63;5.38;;;16.70;99.90;;;;;;4109338;28;20423;-75
2022/10/29 06:40:24;;;;;;;11.30;5.20;;;16.70;99.90;;;;;;4122024;28;20707;-75
2022/10/29 06:42:24;;;;;;;11.82;5.55;;;16.80;99.90;;;;;;4124100;28;20444;-67
2022/10/29 06:44:25;;;;;;;10.80;4.95;;;16.80;99.90;;;;;;4121383;28;20166;-73
2022/10/29 06:46:26;;;;;;;12.80;5.88;;;16.80;99.90;;;;;;4114878;28;20069;-71
2022/10/29 06:48:27;;;;;;;13.43;5.90;;;16.80;99.90;;;;;;4107959;28;20033;-74
2022/10/29 06:50:28;;;;;;;11.90;5.68;;;16.80;99.90;;;;;;4124668;28;20117;-75
2022/10/29 06:52:28;;;;;;;12.68;5.57;;;16.80;99.90;;;;;;4128292;28;20030;-71
2022/10/29 06:54:29;;;;;;;15.68;6.22;;;16.80;99.90;;;;;;4125719;28;20030;-75
2022/10/29 06:56:30;;;;;;;9.18;5.38;;;16.80;99.90;;;;;;4119589;28;20038;-75
2022/10/29 06:58:31;;;;;;;12.60;5.03;;;16.80;99.90;;;;;;4143276;28;20033;-75
2022/10/29 07:00:33;;;;;;;11.75;5.00;;;16.80;99.90;;;;;;4125032;28;20034;-74
2022/10/29 07:02:33;;;;;;;14.73;5.65;;;16.80;99.90;;;;;;4126897;28;20062;-75
2022/10/29 07:04:34;;;;;;;12.85;5.13;;;16.90;99.90;;;;;;4123924;28;20140;-75
2022/10/29 07:06:34;;;;;;;12.75;5.13;;;16.90;99.90;;;;;;4120629;28;20038;-73
2022/10/29 07:08:35;;;;;;;14.30;5.13;;;16.90;99.90;;;;;;4125461;28;20035;-74
2022/10/29 07:10:36;;;;;;;10.48;5.03;;;16.90;99.90;;;;;;4126395;28;20395;-75
2022/10/29 07:12:41;;;;;;;13.65;5.40;;;16.90;99.90;;;;;;4126989;28;20041;-75
2022/10/29 07:14:42;;;;;;;10.02;5.15;;;16.90;99.90;;;;;;4125788;28;20030;-75
2022/10/29 07:16:42;;;;;;;7.13;4.55;;;17.00;99.90;;;;;;4123899;28;20403;-74
2022/10/29 07:18:43;;;;;;;9.55;5.15;;;17.00;99.90;;;;;;4139596;28;20496;-75
2022/10/29 07:20:44;;;;;;;9.68;4.82;;;17.00;99.90;;;;;;4122963;28;20031;-73
2022/10/29 07:22:46;;;;;;;9.68;4.43;;;17.00;99.90;;;;;;4128056;28;20042;-67
2022/10/29 07:24:47;;;;;;;11.65;4.75;;;17.10;99.90;;;;;;4126565;28;20046;-74
2022/10/29 07:26:48;;;;;;;8.63;4.80;;;17.10;99.90;;;;;;4119214;28;20028;-74
2022/10/29 07:28:48;;;;;;;10.80;5.03;;;17.10;99.90;;;;;;4122300;28;20041;-74
2022/10/29 07:30:51;;;;;;;11.40;5.20;;;17.20;99.90;;;;;;4122647;28;20089;-73
2022/10/29 07:32:52;;;;;;;13.27;5.63;;;17.20;99.90;;;;;;4126809;28;20041;-73
2022/10/29 07:34:52;;;;;;;11.40;5.88;;;17.20;99.90;;;;;;4143291;28;20103;-74
2022/10/29 07:36:53;;;;;;;11.35;6.10;;;17.30;99.90;;;;;;4121473;28;20030;-74
2022/10/29 07:38:53;;;;;;;10.88;5.68;;;17.20;99.90;;;;;;4125949;28;20643;-75
2022/10/29 07:40:54;;;;;;;10.07;6.03;;;17.30;99.90;;;;;;4121352;28;20493;-74
2022/10/29 07:42:55;;;;;;;11.20;5.18;;;17.40;99.90;;;;;;4121162;28;20039;-75
2022/10/29 07:44:55;;;;;;;12.10;5.25;;;17.40;99.90;;;;;;4122477;28;20377;-68
2022/10/29 07:46:56;;;;;;;11.77;5.80;;;17.40;99.90;;;;;;4139991;28;20031;-74
2022/10/29 07:48:57;;;;;;;13.55;5.07;;;17.40;99.90;;;;;;4125161;28;20298;-74
2022/10/29 07:50:58;;;;;;;11.63;5.00;;;17.40;99.90;;;;;;4119727;28;20088;-74
2022/10/29 07:53:00;;;;;;;15.80;5.23;;;17.40;99.90;;;;;;4126558;28;20038;-75
2022/10/29 07:55:01;;;;;;;13.00;5.50;;;17.40;99.90;;;;;;4125098;28;20778;-73
2022/10/29 07:57:02;;;;;;;10.00;5.07;;;17.50;99.90;;;;;;4121735;28;20038;-74
2022/10/29 07:59:02;;;;;;;12.93;5.35;;;17.50;99.90;;;;;;4124404;28;20399;-71
2022/10/29 08:01:03;;;;;;;11.15;5.45;;;17.50;99.90;;;;;;4136671;28;20125;-75
2022/10/29 08:03:04;;;;;;;12.70;5.60;;;17.50;99.90;;;;;;4121550;28;20112;-75
2022/10/29 08:05:05;;;;;;;15.10;6.05;;;17.50;99.90;;;;;;4133696;28;20045;-74
2022/10/29 08:07:06;;;;;;;15.18;6.05;;;17.60;99.90;;;;;;4125810;28;20037;-74
2022/10/29 08:09:07;;;;;;;10.93;5.28;;;17.60;99.90;;;;;;4123885;28;20034;-75
2022/10/29 08:11:07;;;;;;;11.65;5.78;;;17.70;99.90;;;;;;4123600;28;20042;-75
2022/10/29 08:13:08;;;;;;;9.60;5.15;;;17.80;99.90;;;;;;4125955;28;20023;-75
2022/10/29 08:15:09;;;;;;;11.52;5.00;;;18.00;99.90;;;;;;4123883;28;20031;-72
2022/10/29 08:17:09;;;;;;;10.57;4.75;;;18.10;99.90;;;;;;4126139;28;20545;-75
2022/10/29 08:19:10;;;;;;;10.73;4.68;;;18.20;99.90;;;;;;4122567;28;20030;-75
2022/10/29 08:21:10;;;;;;;11.95;5.07;;;18.30;99.90;;;;;;4127109;28;20435;-72
2022/10/29 08:23:12;;;;;;;11.88;4.57;;;18.40;99.90;;;;;;4117822;28;20046;-74
2022/10/29 08:25:14;;;;;;;13.40;4.70;;;18.50;99.90;;;;;;4128119;28;20038;-72
2022/10/29 08:27:14;;;;;;;12.40;4.80;;;18.50;99.90;;;;;;4127678;28;20043;-75
2022/10/29 08:29:15;;;;;;;13.48;4.43;;;18.60;99.90;;;;;;4136419;28;20038;-75
2022/10/29 08:31:15;;;;;;;13.15;4.70;;;18.60;99.90;;;;;;4132355;28;21079;-72
2022/10/29 08:33:17;;;;;;;12.63;4.57;;;18.60;99.90;;;;;;4144991;28;20502;-67
2022/10/29 08:35:17;;;;;;;16.45;5.45;;;18.60;99.90;;;;;;4165827;28;20099;-73
2022/10/29 08:37:18;;;;;;;13.95;4.82;;;18.60;99.90;;;;;;4139221;28;20038;-74
2022/10/29 08:39:18;;;;;;;15.77;5.18;;;18.60;99.90;;;;;;4132506;28;20045;-74
2022/10/29 08:41:58;;;;;;;9.60;4.10;;;18.50;99.90;;;;;;4138681;28;20034;-74
2022/10/29 08:44:24;;;;;;;11.23;4.50;;;18.50;99.90;;;;;;4119716;28;20038;-74
2022/10/29 08:46:49;;;;;;;10.18;4.22;;;18.50;99.90;;;;;;4134444;28;20038;-74
2022/10/29 08:48:59;;;;;;;12.80;5.38;;;18.50;99.90;;;;;;4130131;28;20030;-75
2022/10/29 08:51:07;;;;;;;15.23;5.53;;;18.50;99.90;;;;;;4139117;28;20034;-75
2022/10/29 08:53:16;;;;;;;14.65;5.65;;;18.50;99.90;;;;;;4132483;28;20029;-75
2022/10/29 08:55:23;;;;;;;13.93;5.22;;;18.50;99.90;;;;;;4140953;28;20380;-74
2022/10/29 08:57:25;;;;;;;9.45;4.75;;;18.50;99.90;;;;;;4136238;28;20034;-74
2022/10/29 08:59:31;;;;;;;19.65;5.35;;;18.60;99.90;;;;;;4141887;28;20073;-75
2022/10/29 09:01:32;;;;;;;12.63;4.88;;;18.60;99.90;;;;;;4139018;28;20121;-75
2022/10/29 09:03:32;;;;;;;12.18;5.22;;;18.60;99.90;;;;;;4133519;28;20412;-75
2022/10/29 09:06:00;;;;;;;9.63;4.60;;;18.60;99.90;;;;;;4137009;28;20398;-75
2022/10/29 09:08:38;;;;;;;10.05;4.75;;;18.60;99.90;;;;;;4133135;28;20065;-74
2022/10/29 09:10:46;;;;;;;16.35;4.93;;;18.60;99.90;;;;;;4143217;28;20517;-75
2022/10/29 09:13:05;;;;;;;13.40;4.88;;;18.60;99.90;;;;;;4129499;28;20510;-69
2022/10/29 09:15:17;;;;;;;13.55;4.90;;;18.60;99.90;;;;;;4159249;28;20365;-74
2022/10/29 09:17:52;;;;;;;12.73;5.43;;;18.60;99.90;;;;;;4120996;28;20500;-74
2022/10/29 09:20:29;;;;;;;12.15;4.70;;;18.70;99.90;;;;;;4110736;28;20547;-73
2022/10/29 09:23:04;;;;;;;10.95;4.75;;;18.70;99.90;;;;;;4135499;28;20037;-74
2022/10/29 09:25:17;;;;;;;14.63;4.78;;;18.70;99.90;;;;;;4121812;28;20047;-73
2022/10/29 09:27:23;;;;;;;15.18;6.20;;;18.70;99.90;;;;;;4119907;28;20030;-74
2022/10/29 09:29:27;;;;;;;13.75;4.72;;;18.70;99.90;;;;;;4124667;28;20510;-74
2022/10/29 09:31:41;;;;;;;11.45;4.63;;;18.80;99.90;;;;;;4124686;28;20030;-70
2022/10/29 09:33:45;;;;;;;13.00;4.40;;;18.70;99.90;;;;;;4122121;28;20085;-74
2022/10/29 09:35:53;;;;;;;10.30;4.55;;;18.80;99.90;;;;;;4123468;28;20396;-74
2022/10/29 09:38:00;;;;;;;13.77;4.72;;;18.90;99.90;;;;;;4135262;28;20049;-74
2022/10/29 09:40:04;;;;;;;11.38;4.57;;;18.90;99.90;;;;;;4124798;28;20034;-73
2022/10/29 09:42:13;;;;;;;8.38;4.40;;;19.00;99.90;;;;;;4140343;28;20123;-74
2022/10/29 09:44:23;;;;;;;13.65;4.85;;;19.10;99.90;;;;;;4122974;28;20053;-72
2022/10/29 09:46:45;;;;;;;10.52;4.35;;;19.10;99.90;;;;;;4122229;28;20034;-74
2022/10/29 09:48:54;;;;;;;14.32;5.13;;;19.10;99.90;;;;;;4124725;28;20027;-74
2022/10/29 09:51:22;;;;;;;11.48;4.78;;;19.20;99.90;;;;;;4119730;28;20039;-74
2022/10/29 09:53:22;;;;;;;15.00;5.00;;;19.20;99.90;;;;;;4122101;28;20035;-74
2022/10/29 09:55:40;;;;;;;12.65;4.95;;;19.30;99.90;;;;;;4121752;28;20087;-73
2022/10/29 09:57:41;;;;;;;10.75;5.22;;;19.30;99.90;;;;;;4121860;28;20082;-73
2022/10/29 09:59:46;;;;;;;15.68;5.43;;;19.40;99.90;;;;;;4126335;28;20034;-74
2022/10/29 10:01:47;;;;;;;16.85;6.82;;;19.40;99.90;;;;;;4139783;28;20033;-69
2022/10/29 10:03:54;;;;;;;11.90;5.43;;;19.50;99.90;;;;;;4125756;28;20065;-74
2022/10/29 10:06:01;;;;;;;20.35;6.32;;;19.50;99.90;;;;;;4124393;28;20443;-74
2022/10/29 10:08:13;;;;;;;12.70;5.03;;;19.60;99.90;;;;;;4121559;28;20034;-74
2022/10/29 10:10:23;;;;;;;14.75;4.80;;;19.70;99.90;;;;;;4123553;28;20566;-73
2022/10/29 10:12:36;;;;;;;14.38;4.50;;;19.80;99.90;;;;;;4124604;28;20026;-74
2022/10/29 10:14:37;;;;;;;10.00;4.05;;;19.80;99.90;;;;;;4140899;28;20062;-74
2022/10/29 10:16:37;;;;;;;9.90;4.68;;;19.90;99.90;;;;;;4116668;28;20116;-74
2022/10/29 10:18:40;;;;;;;9.27;4.40;;;19.90;99.90;;;;;;4122111;28;20122;-74
2022/10/29 10:20:44;;;;;;;11.95;4.40;;;20.00;99.90;;;;;;4116341;28;20118;-71
2022/10/29 10:22:46;;;;;;;12.90;4.70;;;19.90;99.90;;;;;;4122980;23;20089;-80
2022/10/29 10:24:49;;;;;;;12.68;4.22;;;20.00;99.90;;;;;;4110022;28;20047;-80
2022/10/29 10:26:50;;;;;;;16.67;4.57;;;20.00;99.90;;;;;;4111364;28;20061;-80
2022/10/29 10:29:12;;;;;;;10.00;4.38;;;20.00;99.90;;;;;;4111488;28;20402;-80
2022/10/29 10:31:15;;;;;;;10.50;4.47;;;20.10;99.90;;;;;;4111532;28;20042;-81
2022/10/29 10:33:22;;;;;;;;;;;20.20;99.90;;;;;;4115034;28;20034;-80
2022/10/29 10:35:29;;;;;;;11.85;4.32;;;20.20;99.90;;;;;;4111834;28;20396;-72
2022/10/29 10:37:32;;;;;;;13.68;4.35;;;20.30;99.90;;;;;;4114909;28;20027;-81
2022/10/29 10:39:37;;;;;;;16.75;5.35;;;20.30;99.90;;;;;;4112760;28;20031;-78
2022/10/29 10:41:41;;;;;;;8.57;3.50;;;20.30;99.90;;;;;;4113101;28;20030;-81
2022/10/29 10:43:44;;;;;;;15.38;4.85;;;20.40;99.90;;;;;;4114831;28;20034;-79